Tiempo atmosférico en la estación meteorológica de Gijón, Campus, Asturias (26 m.)



Fecha
DESCASC
Temp. máxima en grados centígrados (hora)
DESCASC
Temp. mínima en grados centígrados (hora)
DESCASC
Temp. media en grados centígrados
DESCASC
Racha de viento máxima en m/sg (hora)
DESCASC
Velocidad máxima media en intervalos de 10 minutos(hora)
DESCASC
Precipitaciones diarias en mm
DESCASC
Precipitaciones de 00:00 a 06:00 en mm
DESCASC
Precipitaciones de 06:00 a 12:00 en mm
DESCASC
Precipitaciones de 12:00 a 18:00 en mm
DESCASC
Precipitaciones de 18:00 a 24:00 en mm
DESCASC
13-10-2019 19.8 (12:00) 11.9 (05:10) 15.8 10 (12:00) 5 (12:10) -- 0 0 0 --
12-10-2019 23.2 (15:20) 13.4 (09:10) 18.3 6.67 (15:30) 3.61 (15:30) 0 0 0 0 0
11-10-2019 21.4 (12:50) 8.1 (07:10) 14.8 6.11 (15:00) 3.89 (14:20) 0 0 0 0 0
10-10-2019 21.1 (15:50) 8.2 (00:00) 14.7 -- (--) -- (--) -- 0 -- -- 0
09-10-2019 21.3 (14:10) 11.3 (00:00) 16.3 9.17 (15:10) 5.83 (15:20) 0.2 0 0 0.2 0
08-10-2019 24.7 (12:10) 12.3 (00:00) 18.5 10.56 (13:40) 5.83 (13:40) 3.8 0 0 2 1.8
07-10-2019 23.9 (14:00) 10.1 (00:00) 17 5.83 (14:30) 3.89 (14:30) 0 0 0 0 0
06-10-2019 19.5 (15:50) 14 (00:00) 16.8 6.11 (16:10) 3.61 (16:20) 1 0 0.2 0.8 0
05-10-2019 -- (--) -- (--) -- -- (--) -- (--) -- -- 0 -- 0
04-10-2019 19.5 (00:00) 15.8 (00:00) 17.7 -- (--) -- (--) -- 1.6 4.6 -- --
03-10-2019 25 (18:00) 10.1 (00:00) 17.6 6.11 (14:40) 3.61 (14:30) -- 0 0 -- 0
02-10-2019 20.4 (14:10) 14.2 (00:00) 17.3 10.28 (03:10) 6.11 (05:40) 0.8 0 0.8 0 0
01-10-2019 23.7 (12:00) 15.6 (00:00) 19.7 -- (--) -- (--) -- -- -- 0 0
30-09-2019 27.6 (15:00) 15.6 (00:00) 21.6 -- (--) -- (--) -- -- 0 0 0
29-09-2019 25.1 (15:30) 9.9 (00:00) 17.5 -- (--) -- (--) -- 0 -- 0 0
28-09-2019 -- (--) -- (--) -- -- (--) -- (--) -- 0 0 -- --
27-09-2019 21.8 (12:40) 12.5 (00:00) 17.1 -- (--) -- (--) -- -- 0 0 --
26-09-2019 -- (--) -- (--) -- -- (--) -- (--) -- 0 -- -- --
25-09-2019 22.8 (13:10) 12.9 (00:00) 17.8 6.67 (13:50) 4.17 (13:50) -- 0 -- 0 0
24-09-2019 22.2 (15:00) 14.1 (00:00) 18.2 -- (--) -- (--) -- 4 -- 0 0
23-09-2019 -- (--) -- (--) -- -- (--) -- (--) -- -- 0 1 --
22-09-2019 24.2 (15:10) 10.8 (00:00) 17.5 10 (15:20) 5.56 (15:50) 4.8 4.8 0 0 0
21-09-2019 28.5 (17:30) 15.2 (00:00) 21.8 8.61 (21:40) 4.44 (21:20) 1.8 0 0 0 1.8
20-09-2019 24.7 (13:30) 12.8 (00:00) 18.8 -- (--) -- (--) -- -- 0 -- 0
19-09-2019 24.3 (15:00) 13.6 (00:00) 18.9 9.44 (15:30) 4.44 (14:50) -- 0 -- 0 0
18-09-2019 23.4 (15:50) 16.2 (00:00) 19.8 -- (--) -- (--) -- -- 0.2 -- 0
17-09-2019 -- (--) -- (--) -- -- (--) -- (--) -- 0 -- -- --
16-09-2019 24.7 (16:50) 17.7 (00:00) 21.2 5.83 (15:20) 3.61 (15:30) 0 0 0 0 0

Gráficas

Temp. máximas Temp. mínimas Temp. medias Precipitaciones Rachas de viento máximas Velocidades máximas media en intervalos de 10 minutos

Datos horarios

Fecha y hora oficial Temperatura (ºC) Velocidad del viento (km/h) Dirección del viento Racha (km/h) Dirección de racha Precipitación (mm) Presión (hPa) Tendencia (hPa) Humedad (%)
2019-10-15 23:00:00 15.1 3 Noroeste 15 Sur 0 1010.8 -1.9 71
2019-10-15 22:00:00 13.8 4 Sudoeste 17 Sur 0.2 1011.1 -1 85
2019-10-15 21:00:00 14.3 5 Sudeste 9 Sur 0.8 1012.4 0.8 89
2019-10-15 20:00:00 15.9 5 Sur 10 Sudeste 0.2 1012.7 1 82
2019-10-15 19:00:00 18.5 3 Nordeste 6 Norte 0 1012.1 0.2 61
2019-10-15 18:00:00 20.1 2 Sur 10 Noroeste 0 1011.6 -0.9 54
2019-10-15 17:00:00 20.7 5 Oeste 11 Sur 0 1011.7 -1 42
2019-10-15 16:00:00 20.3 3 Sudoeste 10 Sudeste 0 1011.9 -1 43
2019-10-15 15:00:00 19.8 6 Sudoeste 15 Oeste 0 1012.5 -1 44
2019-10-15 14:00:00 19.8 6 Sudoeste 17 Sudoeste 0 1012.7 -0.9 41
2019-10-15 13:00:00 18.9 5 Sudoeste 18 Sudoeste 0 1012.9 -0.4 42
2019-10-15 12:00:00 18.9 6 Sudoeste 17 Sudoeste 0 1013.5 0.3 41
2019-10-15 11:00:00 16.4 10 Sudoeste 19 Sur 0 1013.6 0.5 46
2019-10-15 10:00:00 15 10 Sur 20 Sudoeste 0 1013.3 0.7 51
2019-10-15 09:00:00 12.3 5 Sudoeste 13 Sudoeste 0 1013.2 0.7 62
2019-10-15 08:00:00 13 6 Sudoeste 17 Sur 0 1013.1 0.7 58
2019-10-15 07:00:00 13 7 Sudoeste 15 Sudoeste 0 1012.6 0.3 58
2019-10-15 06:00:00 13.2 7 Sudoeste 18 Sur 0 1012.5 0.2 59
2019-10-15 05:00:00 13.2 9 Sudoeste 22 Sudoeste 0 1012.4 0.4 61
2019-10-15 04:00:00 13.2 8 Sudoeste 20 Oeste 0 1012.3 0.5 62
2019-10-15 03:00:00 12.7 9 Sudoeste 22 Oeste 0 1012.3 0.6 63
2019-10-15 02:00:00 12.5 8 Sudoeste 22 Sudoeste 0 1012 1 62
2019-10-15 01:00:00 12.6 8 Sudoeste 22 Sudoeste 0 1011.8 1.7 63
2019-10-15 00:00:00 12.2 8 Sudoeste 21 Sudoeste 0 1011.7 2 67
2019-10-14 23:00:00 12 9 Sudoeste 23 Sudoeste 0 1011 1.9 68
2019-10-14 22:00:00 11.9 7 Sudoeste 19 Sudoeste 0 1010.1 2.2 71
2019-10-14 21:00:00 11.6 6 Sudoeste 15 Sur 0 1009.7 2.8 79
2019-10-14 20:00:00 12.6 5 Oeste 33 Oeste 0.4 1009.1 2.6 82
2019-10-14 19:00:00 14.4 7 Oeste 14 Oeste 0 1007.9 3.1 74
2019-10-14 18:00:00 13.7 4 Sudoeste 14 Sudoeste 0 1006.9 2.8 79
2019-10-14 17:00:00 12.9 9 Sudoeste 40 Oeste 0.6 1006.5 2 83
2019-10-14 16:00:00 16.7 4 Oeste 11 Noroeste 0 1004.8 0.1 76
2019-10-14 15:00:00 16.3 0 Calma 8 Norte 0 1004.1 0.2 78
2019-10-14 14:00:00 15.8 3 Sudeste 7 Sudeste 0 1004.5 1.3 83
2019-10-14 13:00:00 15.3 4 Oeste 9 Oeste 0 1004.7 1.8 83
2019-10-14 12:00:00 14.3 6 Noroeste 11 Norte 0 1003.9 1.2 91
2019-10-14 11:00:00 13.1 6 Noroeste 13 Sudeste 1.2 1003.2 0.4 96
2019-10-14 10:00:00 12.4 5 Este 12 Sudeste 2.4 1002.9 -0.7 96
2019-10-14 09:00:00 12.6 4 Sudeste 7 Sudeste 0.6 1002.7 -0.7 96
2019-10-14 08:00:00 12.7 4 Sudeste 9 Sudeste 0 1002.8 -1.7 93
2019-10-14 07:00:00 12.8 4 Sur 10 Sudeste 0.6 1003.6 -0.7 93
2019-10-14 06:00:00 13.2 3 Sudeste 18 Noroeste 0 1003.4 -1.1 90
2019-10-14 05:00:00 14.3 5 Oeste 20 Oeste 0 1004.5 0.1 82
2019-10-14 04:00:00 14.1 4 Sudoeste 25 Noroeste 0 1004.3 -0.4 91
2019-10-14 03:00:00 14.2 10 Noroeste 26 Noroeste 0 1004.5 -0.7 96
2019-10-14 02:00:00 15.4 2 Sudoeste 7 Sudeste 0 1004.4 -1.3 100
2019-10-14 01:00:00 15.4 5 Oeste 10 Oeste 0.2 1004.7 -1.7 100
2019-10-14 00:00:00 15.4 0 Calma 4 Sudoeste 0 1005.2 -1.6 99
2019-10-13 23:00:00 15.3 0 Calma 3 Sur 0.4 1005.7 -1.5 99
2019-10-13 22:00:00 15.2 2 Oeste 5 Norte 0.4 1006.4 -0.5 99
2019-10-13 21:00:00 15.3 5 Nordeste 12 Norte 0.4 1006.8 -0.6 98
2019-10-13 20:00:00 15.5 4 Noroeste -- -- -- 1007.2 -0.3 98
2019-10-13 19:00:00 16 3 Noroeste 15 Norte 0 1006.9 -0.7 95
2019-10-13 18:00:00 17.3 6 Norte 10 Norte 0 1007.4 -0.4 84
2019-10-13 17:00:00 17.5 7 Norte 12 Norte 0 1007.5 -0.4 83
2019-10-13 16:00:00 17.5 8 Norte 18 Noroeste 0 1007.6 -0.3 83
2019-10-13 15:00:00 17.8 10 Norte 21 Noroeste 0 1007.8 1 82
2019-10-13 14:00:00 18.5 9 Noroeste 19 Noroeste 0 1007.9 2.7 80
2019-10-13 13:00:00 18.3 11 Noroeste 30 Noroeste 0 1007.9 3.8 82
2019-10-13 12:00:00 19.8 14 Noroeste 36 Noroeste 0 1006.8 3.6 72
2019-10-13 11:00:00 17.3 2 Nordeste 6 Sur 0 1005.2 2 93
2019-10-13 10:00:00 15.5 3 Sudeste 8 Sudeste 0 1004.1 1.5 99
2019-10-13 09:00:00 12.6 3 Sudeste 10 Sudeste 0 1003.2 0.7 100
2019-10-13 08:00:00 12.2 3 Sudoeste 8 Sudeste 0 1003.2 0.7 100
2019-10-13 07:00:00 12.5 0 Calma 10 Sudeste 0 1002.6 0 99
2019-10-13 06:00:00 12.4 4 Oeste 8 Sudeste 0 1002.5 -1 100
2019-10-13 05:00:00 12 5 Sudeste 7 Sudeste 0 1002.5 -1.4 98
2019-10-13 04:00:00 12.4 4 Sudeste 9 Sur 0 1002.6 -2 98
2019-10-13 03:00:00 13 3 Este 8 Sudeste 0 1003.5 -1.3 97
2019-10-13 02:00:00 13.8 3 Sur 8 Sudeste 0 1003.9 -1.1 97
2019-10-13 01:00:00 14.5 3 Sudeste 9 Sur 0 1004.6 -0.8 95
2019-10-13 00:00:00 15.4 2 Sudeste 8 Sudeste 0 1004.8 -0.3 93
2019-10-12 23:00:00 16.6 4 Sudeste 16 Este 0 1005 -0.2 91
2019-10-12 22:00:00 17.3 3 Este 12 Este 0 1005.4 0.1 89
2019-10-12 21:00:00 18.3 8 Este 21 Este 0 1005.1 -0.4 84
2019-10-12 20:00:00 18.8 9 Este 21 Sudeste 0 1005.2 -0.4 81
2019-10-12 19:00:00 19.3 9 Este 20 Este 0 1005.3 -0.5 78
2019-10-12 18:00:00 20.9 7 Nordeste 24 Nordeste 0 1005.5 -0.7 67
2019-10-12 17:00:00 21.7 10 Este 23 Nordeste 0 1005.6 -1.6 63
2019-10-12 16:00:00 22.2 9 Este 24 Nordeste 0 1005.8 -2.2 61
2019-10-12 15:00:00 22.9 9 Nordeste 19 Norte 0 1006.2 -2.5 60
2019-10-12 14:00:00 21.8 6 Este 19 Nordeste 0 1007.2 -1.7 66
2019-10-12 13:00:00 20.4 9 Este 17 Este 0 1008 -0.5 72
2019-10-12 12:00:00 18.5 5 Sur 10 Sudeste 0 1008.7 0.8 81
2019-10-12 11:00:00 15.7 3 Sur 6 Sur 0 1008.9 0.8 93
2019-10-12 10:00:00 13.8 5 Sudeste 7 Este 0 1008.5 0.4 97
2019-10-12 09:00:00 13.5 3 Sudeste 6 Este 0 1007.9 -0.4 97
2019-10-12 08:00:00 14.5 3 Sudeste 6 Sudeste 0 1008.1 -0.3 95
2019-10-12 07:00:00 15.2 4 Sudeste 6 Este 0 1008.1 -1 94
2019-10-12 06:00:00 15.9 3 Sur 6 Sudeste 0 1008.3 -1.4 91
2019-10-12 05:00:00 16.2 4 Sudeste 8 Este 0 1008.4 -2 90
2019-10-12 04:00:00 15.8 2 Sudeste 7 Sudeste 0 1009.1 -1.8 91
2019-10-12 03:00:00 15.8 3 Sudeste 5 Sudeste 0 1009.7 -1.7 94
2019-10-12 02:00:00 15.8 0 Calma 4 Sudeste 0 1010.4 -1.2 94
2019-10-12 01:00:00 15.8 4 Sudeste 5 Este 0 1010.9 -0.7 93
2019-10-12 00:00:00 16.2 4 Sudeste 5 Sudeste 0 1011.4 -0.3 91
2019-10-11 23:00:00 16.9 3 Sudeste 5 Sudeste 0 1011.6 0 89
2019-10-11 22:00:00 17.3 3 Oeste 9 Noroeste 0 1011.6 0.5 87
2019-10-11 21:00:00 17.5 7 Noroeste 11 Noroeste 0 1011.7 0.6 85
2019-10-11 20:00:00 17.5 5 Norte 11 Norte 0 1011.6 0.4 86
2019-10-11 19:00:00 18.5 8 Norte 14 Noroeste 0 1011.1 -0.4 81
2019-10-11 18:00:00 19.3 8 Norte 16 Noroeste 0 1011.1 -0.8 77
2019-10-11 17:00:00 20.1 10 Norte 17 Norte 0 1011.2 -1.6 75
2019-10-11 16:00:00 20.2 10 Norte 20 Noroeste 0 1011.5 -1.6 75
2019-10-11 15:00:00 20 12 Norte 22 Noroeste 0 1011.9 -1.5 76
2019-10-11 14:00:00 20.2 13 Norte 19 Nordeste 0 1012.8 -1 72
2019-10-11 13:00:00 21.2 11 Noroeste 14 Noroeste 0 1013.1 -0.5 57
2019-10-11 12:00:00 19.9 2 Norte 5 Norte 0 1013.4 0.1 67
2019-10-11 11:00:00 16 3 Nordeste 5 Nordeste 0 1013.8 0.9 81
2019-10-11 10:00:00 11.9 3 Sudeste 6 Sudeste 0 1013.6 0.6 100
2019-10-11 09:00:00 8.4 6 Sudeste 8 Sudeste 0 1013.3 0.1 100
2019-10-11 08:00:00 8.2 4 Sudeste 8 Sudeste 0 1012.9 -0.6 99
2019-10-11 07:00:00 8.2 7 Sudeste 9 Sudeste 0 1013 -0.9 99
2019-10-11 06:00:00 8.7 3 Sudeste 8 Sudeste 0 1013.2 -1.3 99
2019-10-11 05:00:00 9 3 Sudeste 10 Sudeste 0 1013.5 -1.7 98
2019-10-11 04:00:00 9.4 3 Este 6 Sudeste 0 1013.9 -2 97
2019-10-11 03:00:00 9.8 4 Este 6 Sudeste 0 1014.5 -1.6 98
2019-10-11 02:00:00 10.4 5 Sudeste 6 Sudeste 0 1015.2 -1.1 97
2019-10-11 01:00:00 11 4 Sudeste 6 Sudeste 0 1015.9 -0.4 96
2019-10-11 00:00:00 11.7 5 Sudeste 7 Este 0 1016.1 -0.3 94
2019-10-10 23:00:00 13 4 Este 6 Sur 0 1016.3 -0.2 91
2019-10-10 22:00:00 14.9 2 Oeste 13 Este 0 1016.3 -0.3 84
2019-10-10 21:00:00 15.7 4 Este 12 Este 0 1016.4 -0.5 80
2019-10-10 20:00:00 16.8 8 Este 20 Este 0 1016.5 -0.9 74
2019-10-10 19:00:00 18.5 7 Nordeste 23 Nordeste 0 1016.6 -1.4 67
2019-10-10 18:00:00 19.7 8 Nordeste 21 Nordeste 0 1016.9 -1.7 62
2019-10-10 17:00:00 20.3 9 Nordeste 23 Norte 0 1017.4 -1.7 55
2019-10-10 16:00:00 20.9 11 Nordeste -- -- -- 1018 -1.5 55
2019-10-10 15:00:00 20.8 11 Nordeste 22 Nordeste 0 1018.6 -1.5 54
2019-10-10 14:00:00 20.5 12 Norte 19 Norte 0 1019.1 -1.2 53
2019-10-10 13:00:00 20.1 2 Sudoeste 9 Noroeste 0 1019.5 -0.8 54
2019-10-10 12:00:00 18.3 4 Sudoeste 8 Sudoeste 0 1020.1 0.1 64
2019-10-10 11:00:00 15.7 0 Calma 4 Sudeste 0 1020.3 0.6 80
2019-10-10 10:00:00 11.5 3 Sudeste -- -- -- 1020.3 0.6 100
2019-10-10 09:00:00 8.3 4 Sudeste 5 Sudeste 0 1020 0.5 100
2019-10-10 08:00:00 8.3 4 Sudeste 6 Sudeste 0 1019.7 0 99
2019-10-10 07:00:00 8.6 2 Este 5 Norte 0 1019.7 0 99
2019-10-10 06:00:00 8.8 3 Este 6 Sudeste 0 1019.5 -0.4 99
2019-10-10 05:00:00 9.1 2 Sudeste 8 Sudeste 0 1019.7 -0.4 99
2019-10-10 04:00:00 9.5 4 Sudeste 5 Sudeste 0 1019.7 -0.8 98
2019-10-10 03:00:00 10 2 Este 5 Este 0 1019.9 -0.6 98
2019-10-10 02:00:00 10.6 3 Norte 4 Norte 0 1020.1 -0.3 97
2019-10-10 01:00:00 10.9 3 Sudeste 6 Sudeste 0 1020.5 0.3 97
2019-10-10 00:00:00 11.3 3 Este 5 Sudeste 0 1020.5 0.3 96
2019-10-09 23:00:00 12.2 0 Calma 5 Este 0 1020.4 0.7 93
2019-10-09 22:00:00 12.9 5 Sudeste 7 Sudeste 0 1020.2 0.6 90
2019-10-09 21:00:00 14.3 4 Sudeste 7 Sudoeste 0 1020.2 0.9 84
2019-10-09 20:00:00 16.7 5 Noroeste 19 Noroeste 0 1019.7 0.2 71
2019-10-09 19:00:00 18.6 8 Noroeste 21 Norte 0 1019.6 0.1 63
2019-10-09 18:00:00 19.1 14 Noroeste 24 Noroeste 0 1019.3 0.1 63
2019-10-09 17:00:00 19.3 16 Noroeste 30 Noroeste 0 1019.5 0.2 60
2019-10-09 16:00:00 19.8 14 Noroeste 33 Noroeste 0 1019.5 -0.2 56
2019-10-09 15:00:00 19.2 18 Noroeste 30 Noroeste 0 1019.2 -0.8 60
2019-10-09 14:00:00 21 8 Oeste 24 Sudoeste 0 1019.3 -0.7 43
2019-10-09 13:00:00 19.2 9 Sudoeste 24 Sudoeste 0.2 1019.7 0.2 55
2019-10-09 12:00:00 17 11 Sudoeste 22 Sur 0 1020 1.3 62
2019-10-09 11:00:00 16.3 7 Sudoeste 15 Oeste 0 1020 1.7 71
2019-10-09 10:00:00 15.1 6 Sudoeste 16 Sudoeste 0 1019.5 1.6 71
2019-10-09 09:00:00 13.4 5 Sur 9 Sudoeste 0 1018.7 0.9 83
2019-10-09 08:00:00 13.5 5 Sur 14 Sudoeste 0 1018.3 0.7 81
2019-10-09 07:00:00 14.3 6 Sur 15 Sur 0 1017.9 0.1 79
2019-10-09 06:00:00 12.6 4 Sur 8 Sudoeste 0 1017.8 -0.1 91
2019-10-09 05:00:00 14 3 Sur 10 Sudoeste 0 1017.6 0.2 87
2019-10-09 04:00:00 14.6 6 Sur 13 Sudoeste 0 1017.8 0.3 87
2019-10-09 03:00:00 14.4 2 Sudoeste 7 Sudoeste 0 1017.9 -0.2 90
2019-10-09 02:00:00 14.4 2 Norte 7 Sur 0 1017.4 -0.9 93
2019-10-09 01:00:00 14.2 5 Sur 10 Sur 0 1017.5 -1 92
2019-10-09 00:00:00 14.1 3 Nordeste 6 Este 0 1018.1 0.1 96
2019-10-08 23:00:00 14.2 3 Sudoeste 15 Sur 0 1018.3 0.5 96
2019-10-08 22:00:00 14.6 5 Sudoeste 18 Oeste 0.2 1018.5 1.1 97
2019-10-08 21:00:00 14.6 5 Sudeste 17 Norte 0.6 1018 0.7 97
2019-10-08 20:00:00 15.1 6 Noroeste 16 Noroeste 0.8 1017.8 0.6 96
2019-10-08 19:00:00 15.7 5 Sur 12 Sur 0.2 1017.4 0 95
2019-10-08 18:00:00 16.1 3 Sur 15 Sudoeste 0.2 1017.3 0.6 95
2019-10-08 17:00:00 16.1 5 Sur 21 Noroeste 0.2 1017.2 1.3 94
2019-10-08 16:00:00 15.7 14 Noroeste 28 Noroeste 1.4 1017.4 2.9 94
2019-10-08 15:00:00 17 13 Noroeste 29 Noroeste 0.2 1016.7 2.7 94
2019-10-08 14:00:00 18.2 17 Noroeste 38 Noroeste 0 1015.9 1.9 93
2019-10-08 13:00:00 23 17 Noroeste 30 Noroeste 0 1014.5 0.5 72
2019-10-08 12:00:00 24.5 8 Oeste 14 Sudoeste 0 1014 -0.1 53
2019-10-08 11:00:00 21.7 6 Oeste 16 Sur 0 1014 -0.4 68
2019-10-08 10:00:00 17.3 4 Sudeste 10 Oeste 0 1014 -0.4 87
2019-10-08 09:00:00 14 4 Este 8 Sudeste 0 1014.1 -0.2 99
2019-10-08 08:00:00 12.9 2 Sudeste 8 Sudeste 0 1014.4 0 100
2019-10-08 07:00:00 12.5 3 Este 8 Sudeste 0 1014.4 -0.5 99
2019-10-08 06:00:00 12.5 6 Sudeste 7 Sudeste 0 1014.3 -1.4 99
2019-10-08 05:00:00 12.6 5 Sudeste 6 Sudeste 0 1014.4 -1.7 99
2019-10-08 04:00:00 12.9 4 Sudeste 6 Sudeste 0 1014.9 -1.6 98
2019-10-08 03:00:00 13.1 4 Este 6 Este 0 1015.7 -1.1 98
2019-10-08 02:00:00 13.5 4 Sudeste 6 Sudeste 0 1016.1 -0.4 97
2019-10-08 01:00:00 13.9 3 Este 7 Sudeste 0 1016.5 0.1 96
2019-10-08 00:00:00 14.1 6 Sudeste 7 Sudeste 0 1016.8 0.6 95
2019-10-07 23:00:00 14.8 5 Sudeste 6 Sudeste 0 1016.5 0.2 93
2019-10-07 22:00:00 15.7 4 Este 7 Sudeste 0 1016.4 -0.4 90
2019-10-07 21:00:00 17 5 Sudeste 8 Sudeste 0 1016.2 -0.9 85
2019-10-07 20:00:00 19.8 4 Sudeste 6 Norte 0 1016.3 -1.2 72
2019-10-07 19:00:00 22.9 4 Norte 6 Norte 0 1016.8 -0.9 53
2019-10-07 18:00:00 22.7 3 Sudoeste 9 Norte 0 1017.1 -0.5 55
2019-10-07 17:00:00 21.8 7 Norte 16 Nordeste 0 1017.5 -0.1 62
2019-10-07 16:00:00 21.7 11 Norte 17 Norte 0 1017.7 0.1 65
2019-10-07 15:00:00 22.5 11 Norte 21 Norte 0 1017.6 -0.3 64
2019-10-07 14:00:00 23.9 8 Nordeste 15 Nordeste 0 1017.6 -0.9 52
2019-10-07 13:00:00 22.5 3 Nordeste 8 Noroeste 0 1017.6 -0.7 51
2019-10-07 12:00:00 20.6 3 Noroeste 7 Noroeste 0 1017.9 0 60
2019-10-07 11:00:00 17.9 0 Calma 5 Este 0 1018.5 0.8 77
2019-10-07 10:00:00 13.6 4 Sudeste 6 Sudeste 0 1018.3 0.9 100
2019-10-07 09:00:00 10.1 0 Calma 7 Sudeste 0 1017.9 0.9 100
2019-10-07 08:00:00 10.1 5 Sudeste 7 Sudeste 0 1017.7 0.2 100
2019-10-07 07:00:00 10.5 3 Sudeste 6 Sudeste 0 1017.4 -0.4 100
2019-10-07 06:00:00 10.9 2 Sur 8 Este 0 1017 -1.5 99
2019-10-07 05:00:00 11.3 5 Sudeste 6 Sudeste 0 1017.5 -1 99
2019-10-07 04:00:00 12 0 Calma 6 Sudeste 0 1017.8 -1.8 99
2019-10-07 03:00:00 12.4 3 Sudeste 6 Sudeste 0 1018.5 -0.9 98
2019-10-07 02:00:00 12.9 4 Sudeste 6 Sudeste 0 1018.5 -1.5 98
2019-10-07 01:00:00 13.5 3 Sudeste 6 Sudeste 0 1019.6 -0.7 97
2019-10-07 00:00:00 14.1 5 Sudeste 6 Sudeste 0 1019.4 -0.8 96
2019-10-06 23:00:00 15.4 4 Sudeste 5 Sudeste 0 1020 -0.2 93
2019-10-06 22:00:00 16.3 2 Nordeste 4 Este 0 1020.3 0.5 88
2019-10-06 21:00:00 17 3 Sudeste 5 Nordeste 0 1020.2 0.9 85
2019-10-06 20:00:00 17.7 4 Nordeste 9 Nordeste 0 1020.2 0.8 79
2019-10-06 19:00:00 18.3 7 Norte 14 Norte 0 1019.8 0.2 76
2019-10-06 18:00:00 19.1 8 Norte 15 Norte 0 1019.3 -0.3 75
2019-10-06 17:00:00 19.1 7 Nordeste 22 Norte 0 1019.4 -0.6 75
2019-10-06 16:00:00 19 13 Norte 21 Noroeste 0 1019.6 -0.3 78
2019-10-06 15:00:00 18.9 8 Norte 14 Noroeste 0 1019.6 0.2 83
2019-10-06 14:00:00 18 6 Este 19 Noroeste 0.8 1020 0.9 89
2019-10-06 13:00:00 18.6 5 Noroeste 13 Oeste 0 1019.9 1 81
2019-10-06 12:00:00 18.3 4 Sudoeste 14 Sudoeste 0 1019.4 1.1 83
2019-10-06 11:00:00 17.2 4 Sudoeste 12 Sur 0 1019.1 1.4 90
2019-10-06 10:00:00 16.1 5 Sur 10 Sudoeste 0 1018.9 1.5 95
2019-10-06 09:00:00 15.6 2 Oeste 5 Sudoeste 0 1018.3 1 96
2019-10-06 08:00:00 15.5 2 Sudeste 6 Oeste 0.2 1017.7 0.6 96
2019-10-06 07:00:00 15.4 2 Noroeste 6 Noroeste 0 1017.4 0.6 96
2019-10-06 06:00:00 15.4 3 Sur 8 Sur 0 1017.3 0.1 96
2019-10-06 05:00:00 16 5 Oeste 12 Noroeste 0 1017.1 -0.4 89
2019-10-06 04:00:00 15 4 Oeste 8 Oeste 0 1016.8 -0.4 93
2019-10-06 03:00:00 14.1 2 Noroeste 4 Nordeste 0 1017.2 -0.2 95
2019-10-06 02:00:00 14.3 5 Nordeste 6 Nordeste 0 1017.5 -0.1 94
2019-10-06 01:00:00 14 0 Calma 8 Sur 0 1017.2 0 94
2019-10-06 00:00:00 15.5 3 Sur 7 Sudeste 0 1017.4 1.2 91
2019-10-05 23:00:00 15.5 3 Sudoeste 8 Sudeste 0 1017.6 1.2 92
2019-10-05 22:00:00 15.7 5 Sudeste 7 Sudeste 0 1017.2 0.9 93
2019-10-05 21:00:00 16.1 2 Sur 6 Sudeste 0 1016.2 0.3 89
2019-10-05 20:00:00 17.3 2 Este 8 Norte 0 1016.4 0.9 84
2019-10-05 19:00:00 18.1 7 Noroeste 15 Norte 0 1016.3 1.1 77
2019-10-05 18:00:00 18.2 9 Noroeste 17 Noroeste 0 1015.9 0.9 78
2019-10-05 17:00:00 18.4 11 Noroeste 20 Norte 0 1015.5 -0.4 78
2019-10-05 16:00:00 18.5 13 Noroeste 22 Norte 0 1015.2 -0.8 79
2019-10-05 15:00:00 20 4 Nordeste -- -- -- 1015 -1 74
2019-10-05 14:00:00 18.7 8 Norte 17 Norte 0 1015.9 0.2 79
2019-10-05 13:00:00 18.3 9 Noroeste 18 Noroeste 0 1016 0.8 81
2019-10-05 12:00:00 18.8 7 Oeste 14 Noroeste 0 1016 1.5 76
2019-10-05 11:00:00 17.3 5 Noroeste 10 Noroeste 0 1015.7 1.5 83
2019-10-05 10:00:00 13.3 0 Calma 5 Este 0 1015.2 1.2 97
2019-10-05 09:00:00 10.3 4 Sudeste 6 Sudeste 0 1014.5 0.1 100
2019-10-05 08:00:00 10.2 4 Sudeste 5 Sudeste 0 1014.2 -0.6 99
2019-10-05 07:00:00 10.8 3 Este 5 Este 0 1014 -- 99
2019-10-05 06:00:00 11.5 5 Sudeste 8 Sudeste 0 1014.4 -1.2 98
2019-10-05 05:00:00 12.6 5 Sudeste 6 Sudeste 0 1014.8 -- 97
2019-10-05 04:00:00 -- -- -- -- -- -- -- -- --
2019-10-05 03:00:00 15.1 4 Sudeste 5 Este 0 1015.6 -0.4 96
2019-10-05 02:00:00 -- -- -- -- -- -- -- -- --
2019-10-05 01:00:00 15.7 0 Calma -- -- -- 1015.9 -0.2 94
2019-10-05 00:00:00 15.8 2 Sudeste 4 Sudeste 0 1016 0 93
2019-10-04 23:00:00 16 3 Sudeste 4 Sudeste 0 1016.1 0.1 92
2019-10-04 22:00:00 16.5 3 Sudeste 5 Sudeste 0 1016.1 0.5 89
2019-10-04 21:00:00 16.7 3 Sudeste -- -- -- 1016 0.6 87
2019-10-04 20:00:00 17.6 4 Norte 12 Noroeste 0 1016 0.5 76
2019-10-04 19:00:00 18 8 Norte 12 Norte 0 1015.6 -0.4 74
2019-10-04 18:00:00 18.5 7 Norte 12 Noroeste 0 1015.4 -0.8 73
2019-10-04 17:00:00 18.2 7 Norte 21 Noroeste 0 1015.5 -1 76
2019-10-04 16:00:00 18.2 8 Noroeste 15 Norte 0 1016 -0.8 80
2019-10-04 15:00:00 18.6 5 Noroeste -- -- -- 1016.2 -0.9 79
2019-10-04 14:00:00 17.9 3 Noroeste 8 Sur 0 1016.5 -0.6 87
2019-10-04 13:00:00 16.9 4 Sur 13 Norte 0.8 1016.8 0.1 94
2019-10-04 12:00:00 16.2 4 Noroeste 17 Norte 0.6 1017.1 0.8 97
2019-10-04 11:00:00 16.2 6 Noroeste 14 Noroeste 0.8 1017.1 1.3 98
2019-10-04 10:00:00 16 4 Sur 9 Sudeste 0.8 1016.7 1.1 98
2019-10-04 09:00:00 16 5 Sur 10 Sur 0.8 1016.3 0.8 98
2019-10-04 08:00:00 16.2 3 Sudoeste 9 Sudoeste 0.8 1015.8 0.3 98
2019-10-04 07:00:00 16.3 4 Sur 8 Sur 0.8 1015.6 0.2 97
2019-10-04 06:00:00 16.6 3 Sudoeste 15 Noroeste 0.6 1015.5 0 95
2019-10-04 05:00:00 16.7 6 Noroeste 16 Noroeste 0.8 1015.5 0.5 97
2019-10-04 04:00:00 17.1 8 Norte 22 Noroeste 0.2 1015.4 -0.2 96
2019-10-04 03:00:00 18.4 9 Noroeste 22 Noroeste 0 1015.5 -0.5 92
2019-10-04 02:00:00 18.5 5 Noroeste 8 Noroeste 0 1015 -0.9 87
2019-10-04 01:00:00 18.6 3 Sur 14 Noroeste 0 1015.6 0 89
2019-10-04 00:00:00 19.5 10 Noroeste 17 Noroeste 0 1016 0.7 81
2019-10-03 23:00:00 19.7 5 Norte 9 Norte 0 1015.9 0.8 75
2019-10-03 22:00:00 19.5 2 Sur 5 Sudeste 0 1015.6 0.8 79
2019-10-03 21:00:00 19.9 3 Sudeste 5 Norte 0 1015.3 0.7 75
2019-10-03 20:00:00 21.2 0 Calma 12 Norte 0 1015.1 0.2 65
2019-10-03 19:00:00 22.6 10 Norte 16 Nordeste 0 1014.8 -0.6 60
2019-10-03 18:00:00 24.9 4 Sur 9 Norte 0 1014.6 -0.9 49
2019-10-03 17:00:00 24.3 4 Norte -- -- -- 1014.9 -0.9 49
2019-10-03 16:00:00 23.5 9 Norte 15 Norte 0 1015.4 -0.7 51
2019-10-03 15:00:00 22 9 Norte 22 Nordeste 0 1015.5 -1 56
2019-10-03 14:00:00 22.6 10 Norte 18 Norte 0 1015.8 -0.4 53
2019-10-03 13:00:00 21.9 5 Oeste 19 Oeste 0 1016.1 0 52
2019-10-03 12:00:00 20.7 6 Sudoeste 13 Oeste 0 1016.5 0.5 60
2019-10-03 11:00:00 18.3 2 Este 5 Norte 0 1016.2 0.1 74
2019-10-03 10:00:00 13.6 0 Calma 5 Sudeste 0 1016.1 0 97
2019-10-03 09:00:00 10.3 0 Calma 4 Noroeste 0 1016 0 99
2019-10-03 08:00:00 10.1 2 Este 6 Este 0 1016.1 0.1 99
2019-10-03 07:00:00 10.4 2 Este 5 Sudeste 0 1016.1 -0.2 98
2019-10-03 06:00:00 11 0 Calma 5 Este 0 1016 -0.7 98
2019-10-03 05:00:00 11.3 4 Sudeste 7 Sudeste 0 1016 -1.1 98
2019-10-03 04:00:00 11.8 2 Sudeste 7 Sudeste 0 1016.3 -1.4 97
2019-10-03 03:00:00 12.4 5 Sudeste 7 Sudeste 0 1016.7 -1.7 97
2019-10-03 02:00:00 13.4 2 Sudeste 5 Sudeste 0 1017.1 -1.7 95
2019-10-03 01:00:00 14.8 2 Sur 5 Sudeste 0 1017.7 -1.5 93
2019-10-03 00:00:00 15.8 2 Sudeste 3 Sudeste 0 1018.4 -0.8 92
2019-10-02 23:00:00 15.9 2 Este 4 Este 0 1018.8 -0.1 91
2019-10-02 22:00:00 15.7 3 Sudeste 4 Sur 0 1019.2 0.6 93
2019-10-02 21:00:00 16.2 2 Sudeste 6 Este 0 1019.2 0.8 90
2019-10-02 20:00:00 17.2 4 Nordeste 15 Norte 0 1018.9 0.7 85
2019-10-02 19:00:00 17.9 10 Norte 21 Norte 0 1018.6 0.6 83
2019-10-02 18:00:00 18.8 14 Noroeste 23 Noroeste 0 1018.4 0.3 75
2019-10-02 17:00:00 19.3 16 Noroeste 27 Norte 0 1018.2 -0.2 72
2019-10-02 16:00:00 19.4 17 Noroeste 29 Noroeste 0 1018 -0.5 67
2019-10-02 15:00:00 19.8 15 Noroeste 26 Noroeste 0 1018.1 0.1 64
2019-10-02 14:00:00 20.1 7 Oeste 22 Oeste 0 1018.4 0.4 60
2019-10-02 13:00:00 19 10 Oeste 28 Oeste 0 1018.5 1.6 64
2019-10-02 12:00:00 19.4 11 Oeste 21 Sudoeste 0 1018 1.8 65
2019-10-02 11:00:00 17 7 Sudoeste 18 Sudoeste 0 1018 2.2 74
2019-10-02 10:00:00 16.1 8 Sudoeste 19 Sur 0 1016.9 1.5 78
2019-10-02 09:00:00 14.7 7 Sur 15 Sur 0 1016.2 0.6 86
2019-10-02 08:00:00 14.4 4 Sur 18 Noroeste 0.4 1015.8 0.9 94
2019-10-02 07:00:00 14.8 7 Oeste 24 Noroeste 0.4 1015.4 0.6 91
2019-10-02 06:00:00 15.2 13 Noroeste 36 Noroeste 0 1015.6 0.6 91
2019-10-02 05:00:00 17.7 8 Oeste 25 Sudoeste 0 1014.9 0.2 61
2019-10-02 04:00:00 18 9 Oeste 37 Oeste 0 1014.8 0.2 57
2019-10-02 03:00:00 17.7 8 Oeste 16 Sudoeste 0 1015 0.4 60
2019-10-02 02:00:00 17.6 5 Sudoeste 13 Sudoeste 0 1014.7 0.4 65
2019-10-02 01:00:00 17.6 7 Sudoeste 30 Oeste 0 1014.6 1.1 69
2019-10-02 00:00:00 17.7 17 Noroeste 39 Noroeste 0 1014.6 1.5 69
2019-10-01 23:00:00 18.1 17 Oeste 31 Oeste 0 1014.3 1.7 69
2019-10-01 22:00:00 18 6 Sudoeste 26 Oeste 0 1013.5 1.3 72
2019-10-01 21:00:00 18.4 14 Oeste 32 Oeste 0 1013.1 1.6 71
2019-10-01 20:00:00 18.7 15 Oeste 32 Noroeste 0 1012.6 1.4 74
2019-10-01 19:00:00 19.6 15 Oeste 39 Noroeste 0 1012.2 1.5 70
2019-10-01 18:00:00 21 19 Noroeste 40 Noroeste 0 1011.5 1.1 65
2019-10-01 17:00:00 21.4 22 Noroeste 45 Noroeste 0 1011.2 0.5 63
2019-10-01 16:00:00 22.6 21 Noroeste 42 Noroeste 0 1010.7 0 58
2019-10-01 15:00:00 23.3 18 Noroeste 39 Noroeste 0 1010.4 -0.3 52
2019-10-01 14:00:00 22.7 19 Noroeste 39 Noroeste 0 1010.7 -- 61
2019-10-01 13:00:00 23.2 18 Noroeste 37 Oeste 0 1010.7 0.5 54
2019-10-01 12:00:00 23.6 10 Noroeste -- -- -- 1010.7 0.8 59
2019-10-01 11:00:00 -- -- -- -- -- -- -- -- --
2019-10-01 10:00:00 17.6 2 Noroeste 6 Sudeste 0 1010.2 0.9 95
2019-10-01 09:00:00 16.7 2 Sur 7 Sudeste 0 1009.9 0.8 97
2019-10-01 08:00:00 16.5 3 Norte 5 Norte 0 1009.5 -- 98
2019-10-01 07:00:00 15.7 3 Sudeste 7 Sudeste 0 1009.3 -0.4 98
2019-10-01 06:00:00 16.3 0 Calma 7 Sur 0 1009.1 -1.1 96
2019-10-01 05:00:00 -- -- -- -- -- -- -- -- --
2019-10-01 04:00:00 18.7 2 Sudoeste 8 Sur 0 1009.7 -0.7 92
2019-10-01 03:00:00 19.1 3 Oeste 7 Oeste 0 1010.2 -0.7 90
2019-10-01 02:00:00 19.2 2 Sudeste 8 Sudeste 0 1010 -1.1 90
2019-10-01 01:00:00 19.6 4 Norte 9 Este 0 1010.4 -0.8 92
2019-10-01 00:00:00 19.7 5 Norte 9 Norte 0 1010.9 0.4 91
2019-09-30 23:00:00 19.5 3 Sudoeste 5 Sur 0 1011.1 0.5 93
2019-09-30 22:00:00 19.4 2 Sudoeste 26 Noroeste 0 1011.2 1 92
2019-09-30 21:00:00 22.3 5 Nordeste 12 Nordeste 0 1010.5 0.3 69
2019-09-30 20:00:00 23.1 4 Nordeste 14 Sudeste 0 1010.6 0.1 66
2019-09-30 19:00:00 25 7 Este 18 Nordeste 0 1010.2 -0.6 58
2019-09-30 18:00:00 26.3 8 Nordeste 21 Norte 0 1010.2 -0.7 55
2019-09-30 17:00:00 26.6 11 Norte 21 Norte 0 1010.5 -1.2 55
2019-09-30 16:00:00 27.4 10 Nordeste 26 Norte 0 1010.8 -1.7 52
2019-09-30 15:00:00 27.4 15 Norte 27 Norte 0 1010.9 -2.3 54
2019-09-30 14:00:00 26.7 14 Norte 22 Norte 0 1011.7 -1.8 59
2019-09-30 13:00:00 25.3 6 Norte 18 Norte 0 1012.5 -1.2 61
2019-09-30 12:00:00 23.8 12 Norte 17 Norte 0 1013.2 -0.3 70
2019-09-30 11:00:00 22.3 2 Sur 9 Este 0 1013.5 0.3 75
2019-09-30 10:00:00 18.5 3 Sudeste 4 Sudeste 0 1013.7 0.6 93
2019-09-30 09:00:00 16.7 0 Calma 5 Sudeste 0 1013.5 0.2 98
2019-09-30 08:00:00 16.2 3 Sur 5 Sudeste 0 1013.2 -0.4 97
2019-09-30 07:00:00 16 0 Calma 6 Sudeste 0 1013.1 -1 98
2019-09-30 06:00:00 15.7 4 Sudeste -- -- -- 1013.3 -1.2 96
2019-09-30 05:00:00 16.9 2 Sur 10 Este 0 1013.6 -1.2 94
2019-09-30 04:00:00 18 4 Este 8 Nordeste 0 1014.1 -0.9 92
2019-09-30 03:00:00 18.1 2 Este -- -- -- 1014.5 -0.8 92
2019-09-30 02:00:00 18.4 2 Este 4 Nordeste 0 1014.8 -0.7 92
2019-09-30 01:00:00 18.5 0 Calma 9 Sudeste 0 1015 -0.4 91
2019-09-30 00:00:00 18.7 3 Sudeste 6 Sudeste 0 1015.3 0.5 90
2019-09-29 23:00:00 19 4 Oeste 12 Oeste 0 1015.5 1.3 86
2019-09-29 22:00:00 19.1 4 Oeste 17 Noroeste 0 1015.4 1.8 87
2019-09-29 21:00:00 19.2 3 Noroeste 15 Noroeste 0 1014.8 2 87
2019-09-29 20:00:00 19.4 11 Noroeste 22 Noroeste 0 1014.2 2.1 88
2019-09-29 19:00:00 19.7 12 Norte 31 Noroeste 0 1013.6 1.5 89
2019-09-29 18:00:00 21 15 Norte 34 Norte 0 1012.8 0.7 81
2019-09-29 17:00:00 24.6 4 Este 15 Norte 0 1012.1 -0.3 63
2019-09-29 16:00:00 24 13 Norte 21 Norte 0 1012.1 -0.1 62
2019-09-29 15:00:00 24.6 4 Norte 12 Sur 0 1012.1 0.3 58
2019-09-29 14:00:00 23.2 7 Sur 12 Sur 0 1012.4 0.5 61
2019-09-29 13:00:00 23 5 Oeste 9 Oeste 0 1012.2 0.6 51
2019-09-29 12:00:00 20.3 3 Sudeste -- -- -- 1011.8 0.8 73
2019-09-29 11:00:00 18.5 3 Este 6 Sudeste 0 1011.9 1.4 72
2019-09-29 10:00:00 14.5 3 Sudeste 10 Sudeste 0 1011.6 1.1 94
2019-09-29 09:00:00 10.5 8 Sudeste 9 Sudeste 0 1011 -- 100
2019-09-29 08:00:00 10.5 4 Sudeste 10 Sudeste 0 1010.5 -0.9 100
2019-09-29 07:00:00 10.1 7 Sudeste -- -- -- 1010.5 -1.5 99
2019-09-29 06:00:00 -- -- -- -- -- -- -- -- --
2019-09-29 05:00:00 10.2 4 Sudeste 10 Sudeste 0 1011.4 -1.2 98
2019-09-29 04:00:00 10.7 3 Este 8 Sudeste 0 1012 -0.8 98
2019-09-29 03:00:00 11.1 5 Sudeste 8 Este 0 1012.5 -0.8 97
2019-09-29 02:00:00 11.7 5 Sudeste 7 Este 0 1012.6 -1 97
2019-09-29 01:00:00 12.5 4 Sudeste 8 Sudeste 0 1012.8 -- 96
2019-09-29 00:00:00 13.1 2 Este 6 Sudeste 0 1013.3 -0.6 95
2019-09-28 23:00:00 13.8 5 Sudeste 8 Sudeste 0 1013.6 -0.7 94
2019-09-28 22:00:00 -- -- -- -- -- -- -- -- --
2019-09-28 21:00:00 16.8 3 Sudoeste 8 Este 0 1013.9 -0.7 85
2019-09-28 20:00:00 19 7 Norte 17 Norte 0 1014.3 -0.7 75
2019-09-28 19:00:00 21.1 6 Nordeste 19 Nordeste 0 1014.2 -1 66
2019-09-28 18:00:00 21.3 9 Nordeste 24 Nordeste 0 1014.6 -1.5 62
2019-09-28 17:00:00 21.2 11 Nordeste 30 Norte 0 1015 -2.3 61
2019-09-28 16:00:00 21.8 9 Nordeste 25 Norte 0 1015.2 -2.8 60
2019-09-28 15:00:00 21.1 10 Nordeste -- -- -- 1016.1 -2.3 58
2019-09-28 14:00:00 20.9 10 Nordeste 20 Nordeste 0 1017.3 -1.4 60
2019-09-28 13:00:00 20 10 Noroeste 17 Noroeste 0 1018 -0.3 54
2019-09-28 12:00:00 19.8 5 Norte 11 Noroeste 0 1018.4 0.4 56
2019-09-28 11:00:00 19.1 2 Norte 4 Sudeste 0 1018.7 0.8 57
2019-09-28 10:00:00 15.5 0 Calma 3 Sudeste 0 1018.3 0.2 76
2019-09-28 09:00:00 12.1 3 Sudeste 6 Este 0 1018 -0.4 96
2019-09-28 08:00:00 12.5 5 Sudeste 5 Sudeste 0 1017.9 -0.6 95
2019-09-28 07:00:00 12.9 4 Este 6 Sudeste 0 1018.1 -0.5 94
2019-09-28 06:00:00 14.1 5 Sudeste 5 Sudeste 0 1018.4 -0.5 92
2019-09-28 05:00:00 15.3 3 Sudeste 5 Este 0 1018.5 -0.6 90
2019-09-28 04:00:00 15.9 4 Sudeste 7 Sudeste 0 1018.6 -0.5 86
2019-09-28 03:00:00 16.2 4 Sur 6 Sur 0 1018.9 -0.1 87
2019-09-28 02:00:00 16.8 3 Sur 8 Oeste 0 1019.1 0.2 81
2019-09-28 01:00:00 17.1 3 Sudoeste 8 Oeste 0 1019.1 0.5 80
2019-09-28 00:00:00 17.2 3 Sudoeste 14 Oeste 0 1019 0.8 79
2019-09-27 23:00:00 17.6 0 Calma 13 Oeste 0 1018.9 1 79
2019-09-27 22:00:00 18.1 5 Oeste 17 Oeste 0 1018.6 1.1 76
2019-09-27 21:00:00 18.3 7 Oeste 19 Noroeste 0 1018.2 1 75
2019-09-27 20:00:00 18.5 10 Noroeste 23 Noroeste 0 1017.9 0.8 72
2019-09-27 19:00:00 18.8 8 Noroeste -- -- -- 1017.5 0.4 70
2019-09-27 18:00:00 19.2 10 Noroeste 20 Oeste 0 1017.2 0.5 68
2019-09-27 17:00:00 18.7 6 Oeste 22 Noroeste 0 1017.1 0.5 71
2019-09-27 16:00:00 17.6 11 Oeste 22 Noroeste 0 1017.1 0.9 81
2019-09-27 15:00:00 18.3 13 Noroeste 32 Noroeste 0 1016.7 0.7 84
2019-09-27 14:00:00 19.3 13 Noroeste 27 Norte 0 1016.6 0.4 83
2019-09-27 13:00:00 20.3 17 Norte 24 Norte 0 1016.2 0.4 77
2019-09-27 12:00:00 20.4 3 Norte 6 Sudeste 0 1016 0.1 73
2019-09-27 11:00:00 18.6 2 Norte 6 Norte 0 1016.2 0.6 81
2019-09-27 10:00:00 17.4 3 Nordeste 7 Sur 0 1015.8 0.9 89
2019-09-27 09:00:00 17.1 4 Sudeste 15 Noroeste 0 1015.9 1.6 93
2019-09-27 08:00:00 17.4 10 Norte 18 Noroeste 0 1015.6 1.3 86
2019-09-27 07:00:00 17.2 6 Oeste 12 Oeste 0 1014.9 0.2 77
2019-09-27 06:00:00 15.8 2 Oeste 6 Oeste 0 1014.3 -1.1 86
2019-09-27 05:00:00 14.7 3 Norte 6 Oeste 0 1014.3 -1.4 93
2019-09-27 04:00:00 12.6 2 Sudeste -- -- -- 1014.7 -1.5 96
2019-09-27 03:00:00 13.2 3 Norte 7 Oeste 0 1015.4 -0.8 95
2019-09-27 02:00:00 13.7 4 Oeste 6 Noroeste 0 1015.7 -0.1 95
2019-09-27 01:00:00 12.9 4 Este 8 Este 0 1016.2 0.6 95
2019-09-27 00:00:00 13.6 4 Sudeste 8 Oeste 0 1016.2 -- 93
2019-09-26 23:00:00 14.4 0 Calma 5 Sudeste 0 1015.8 0.5 90
2019-09-26 22:00:00 14.9 3 Sudeste -- -- -- 1015.6 -- 88
2019-09-26 21:00:00 -- -- -- -- -- -- -- -- --
2019-09-26 20:00:00 19.6 4 Nordeste -- -- -- 1015.3 0.4 65
2019-09-26 19:00:00 -- -- -- -- -- -- -- -- --
2019-09-26 18:00:00 22.1 10 Nordeste 18 Norte 0 1014.5 -- 58
2019-09-26 17:00:00 21.6 11 Norte 21 Norte 0 1014.9 0 58
2019-09-26 16:00:00 21.7 12 Norte 22 Norte 0 1015.1 -0.1 61
2019-09-26 15:00:00 -- -- -- -- -- -- -- -- --
2019-09-26 14:00:00 22.7 10 Nordeste 24 Nordeste 0 1014.9 -0.5 60
2019-09-26 13:00:00 22.4 7 Nordeste 18 Norte 0 1015.2 0 59
2019-09-26 12:00:00 21.7 5 Sudeste 15 Este 0 1015.6 0.4 59
2019-09-26 11:00:00 18.4 4 Noroeste 6 Noroeste 0 1015.4 0.4 79
2019-09-26 10:00:00 15.3 0 Calma 5 Sudeste 0 1015.2 0.3 93
2019-09-26 09:00:00 12.1 4 Sudeste 6 Sudeste 0 1015.2 0.2 99
2019-09-26 08:00:00 12.2 2 Sur 4 Sudeste 0 1015 0 99
2019-09-26 07:00:00 12.2 2 Este -- -- -- 1014.9 0.2 99
2019-09-26 06:00:00 12 5 Sudeste 7 Sudeste 0 1015 0.2 98
2019-09-26 05:00:00 12.5 4 Sudeste 6 Este 0 1015 0 97
2019-09-26 04:00:00 13.2 3 Sudeste 6 Sudeste 0 1014.7 -0.8 97
2019-09-26 03:00:00 14.1 4 Sudeste 5 Sudeste 0 1014.8 -0.6 96
2019-09-26 02:00:00 15.1 3 Este 4 Sudeste 0 1015 -0.2 95
2019-09-26 01:00:00 15.3 0 Calma 4 Sudeste 0 1015.5 0.3 95
2019-09-26 00:00:00 15.7 2 Sur 8 Sudeste 0 1015.4 0.5 93
2019-09-25 23:00:00 16 5 Sudeste 7 Sudeste 0 1015.2 0.9 91
2019-09-25 22:00:00 17.6 2 Sudoeste 11 Noroeste 0 1015.2 0.9 85
2019-09-25 21:00:00 18.5 5 Noroeste 17 Oeste 0 1014.9 0.7 78
2019-09-25 20:00:00 20.4 6 Oeste 20 Noroeste 0 1014.3 0.2 64
2019-09-25 19:00:00 21 7 Oeste 21 Noroeste 0 1014.3 0.1 60
2019-09-25 18:00:00 21.2 10 Noroeste 22 Noroeste 0 1014.2 -0.5 59
2019-09-25 17:00:00 21.9 10 Noroeste 18 Norte 0 1014.1 -1.1 60
2019-09-25 16:00:00 20.7 10 Norte 18 Norte 0 1014.2 -1.1 62
2019-09-25 15:00:00 20.9 8 Norte 21 Noroeste 0 1014.7 -0.7 63
2019-09-25 14:00:00 21.4 14 Noroeste 24 Noroeste 0 1015.2 -0.3 60
2019-09-25 13:00:00 22.7 9 Oeste 23 Noroeste 0 1015.3 0.2 50
2019-09-25 12:00:00 21.4 10 Sudoeste 21 Sur 0 1015.4 0.3 54
2019-09-25 11:00:00 20 8 Sudoeste 20 Sudoeste 0 1015.5 0.9 55
2019-09-25 10:00:00 18.2 7 Sudoeste 16 Sudoeste 0 1015.1 0.7 61
2019-09-25 09:00:00 15.7 5 Sudoeste 12 Sur 0 1015.1 0.6 71
2019-09-25 08:00:00 14.7 3 Sudoeste 11 Oeste 0 1014.6 0.1 75
2019-09-25 07:00:00 15.1 5 Sudoeste -- -- -- 1014.4 -0.2 75
2019-09-25 06:00:00 13.7 2 Sudoeste 9 Sudoeste 0 1014.5 -0.3 82
2019-09-25 05:00:00 14.7 4 Sudoeste 10 Sur 0 1014.5 -0.1 74
2019-09-25 04:00:00 15.4 5 Sudoeste 11 Sudoeste 0 1014.6 -0.3 71
2019-09-25 03:00:00 14 3 Sudoeste 7 Sudoeste 0 1014.8 -0.1 83
2019-09-25 02:00:00 13.2 2 Sur 5 Sudeste 0 1014.6 -0.2 94
2019-09-25 01:00:00 13 0 Calma 8 Sudeste 0 1014.9 0.2 91
2019-09-25 00:00:00 14.1 5 Sudeste 8 Sudoeste 0 1014.9 1 88
2019-09-24 23:00:00 16.9 5 Sudoeste 17 Sudoeste 0 1014.8 1.1 74
2019-09-24 22:00:00 17.1 4 Sudoeste 17 Sudoeste 0 1014.7 1.2 73
2019-09-24 21:00:00 18.1 9 Oeste 27 Oeste 0 1013.9 0.9 68
2019-09-24 20:00:00 18.6 9 Oeste 26 Noroeste 0 1013.7 1 68
2019-09-24 19:00:00 19.7 14 Oeste 35 Oeste 0 1013.5 0.9 66
2019-09-24 18:00:00 20.7 14 Oeste 34 Noroeste 0 1013 0.6 64
2019-09-24 17:00:00 21.7 16 Noroeste 33 Noroeste 0 1012.7 0.2 58
2019-09-24 16:00:00 21.4 12 Noroeste 30 Norte 0 1012.6 -0.1 67
2019-09-24 15:00:00 22 14 Norte 23 Oeste 0 1012.4 0 66
2019-09-24 14:00:00 21 7 Oeste 18 Sudoeste 0 1012.5 0.5 69
2019-09-24 13:00:00 19.9 8 Norte 19 Noroeste 0 1012.7 -- 77
2019-09-24 12:00:00 19.7 5 Noroeste 13 Noroeste 0 1012.4 1.4 84
2019-09-24 11:00:00 18.3 3 Sudoeste 18 Oeste 0 1012 2.6 91
2019-09-24 10:00:00 -- -- -- -- -- -- -- -- --
2019-09-24 09:00:00 17.8 17 Noroeste 35 Norte 0 1011 2.2 92
2019-09-24 08:00:00 17.7 3 Este 7 Sudeste 0 1009.4 1 99
2019-09-24 07:00:00 -- -- -- -- -- -- -- -- --
2019-09-24 06:00:00 17.5 6 Este 9 Sudeste 3 1008.8 0.9 99
2019-09-24 05:00:00 17.2 2 Sudoeste 9 Sudeste 0.4 1008.4 0.1 99
2019-09-24 04:00:00 16.8 3 Sudeste 10 Sudeste 0.6 1008.3 -0.6 99
2019-09-24 03:00:00 16.4 3 Sur 7 Sudeste 0 1007.9 -1.9 99
2019-09-24 02:00:00 16.3 0 Calma 7 Sudeste 0 1008.3 -2.4 99
2019-09-24 01:00:00 16.3 5 Este 10 Norte 0 1008.9 -2.1 99
2019-09-24 00:00:00 16.4 4 Sur 10 Sur 0 1009.8 -1.8 98
2019-09-23 23:00:00 16.7 3 Este -- -- -- 1010.7 -1.3 97
2019-09-23 22:00:00 17 4 Sudeste 8 Sur 0 1011 -1.2 96
2019-09-23 21:00:00 17.4 3 Sudoeste 8 Oeste 0 1011.6 -0.6 96
2019-09-23 20:00:00 17.5 3 Sudeste 7 Sudeste 0.6 1012 -1.1 94
2019-09-23 19:00:00 18 3 Sudeste 11 Oeste 0.4 1012.2 -0.2 87
2019-09-23 18:00:00 19 4 Nordeste 10 Noroeste 0.8 1012.2 -0.8 81
2019-09-23 17:00:00 20.2 8 Noroeste 13 Noroeste 0 1013.1 0.1 63
2019-09-23 16:00:00 20.5 6 Nordeste 13 Nordeste 0.2 1012.4 -0.6 65
2019-09-23 15:00:00 20.8 6 Nordeste 12 Norte 0 1013 -0.5 70
2019-09-23 14:00:00 21 8 Norte 12 Norte 0 1013 -1.3 65
2019-09-23 13:00:00 19.9 7 Norte 11 Noroeste 0 1013 -1.6 70
2019-09-23 12:00:00 19.2 3 Oeste 6 Sudeste 0 1013.5 -0.1 69
2019-09-23 11:00:00 16.6 3 Sudeste 6 Sudeste 0 1014.3 0.7 87
2019-09-23 10:00:00 15.5 5 Oeste 8 Oeste 0 1014.6 0.2 89
2019-09-23 09:00:00 14.4 2 Nordeste 6 Oeste 0 1013.6 -0.7 98
2019-09-23 08:00:00 14 2 Sur 4 Sudeste 0 1013.6 -0.6 98
2019-09-23 07:00:00 13.7 3 Sudeste 5 Sudeste 0 1014.4 0.2 98
2019-09-23 06:00:00 13.7 2 Norte -- -- -- 1014.3 0.1 97
2019-09-23 05:00:00 13.4 4 Sudeste 6 Sudeste 0 1014.2 0.3 97
2019-09-23 04:00:00 13.2 3 Sudeste 6 Sudeste 0 1014.2 -0.1 98
2019-09-23 03:00:00 13 3 Sur 6 Sudeste 0 1014.2 0 97
2019-09-23 02:00:00 13.1 5 Sudeste -- -- -- 1013.9 -0.2 97
2019-09-23 01:00:00 13.8 3 Sudeste 6 Sudeste 0 1014.3 0.6 95
2019-09-23 00:00:00 14.1 4 Sudeste 5 Sudeste 0 1014.2 0.9 95
2019-09-22 23:00:00 14.4 5 Sudeste 7 Sudeste 0 1014.1 1.4 92
2019-09-22 22:00:00 15.3 4 Sudeste 6 Este 0 1013.7 1.5 89
2019-09-22 21:00:00 16.9 5 Sudeste 14 Noroeste 0 1013.3 1.6 82
2019-09-22 20:00:00 18.8 3 Sudoeste 18 Oeste 0 1012.7 1.8 72
2019-09-22 19:00:00 19.4 14 Noroeste 28 Noroeste 0 1012.2 2.1 70
2019-09-22 18:00:00 19.3 17 Norte 27 Noroeste 0 1011.7 1.8 71
2019-09-22 17:00:00 21.4 19 Noroeste 29 Noroeste 0 1010.9 1.1 58
2019-09-22 16:00:00 21.6 20 Noroeste 36 Oeste 0 1010.1 0.6 52
2019-09-22 15:00:00 23.9 17 Oeste 31 Noroeste 0 1009.9 0.5 38
2019-09-22 14:00:00 23.9 7 Oeste 32 Oeste 0 1009.8 0.7 41
2019-09-22 13:00:00 23 11 Sudoeste 24 Oeste 0 1009.5 0.9 42
2019-09-22 12:00:00 21.1 8 Sudoeste 17 Oeste 0 1009.4 1.8 54
2019-09-22 11:00:00 18.3 6 Sudoeste 11 Sudoeste 0 1009.1 2.3 70
2019-09-22 10:00:00 13.8 0 Calma 8 Sudeste 0 1008.6 2.9 98
2019-09-22 09:00:00 11.2 3 Sudeste 6 Sudeste 0 1007.6 2.4 100
2019-09-22 08:00:00 11.2 3 Sudeste 7 Sudeste 0 1006.8 1.8 99
2019-09-22 07:00:00 11.6 5 Sudeste 7 Sudeste 0 1005.7 1.2 99
2019-09-22 06:00:00 12.4 3 Sudeste 8 Sudeste 0 1005.2 1.1 99
2019-09-22 05:00:00 12.9 4 Este 9 Sudeste 0 1005 1.4 99
2019-09-22 04:00:00 13.2 5 Sudeste 11 Sudeste 0 1004.5 0.8 98
2019-09-22 03:00:00 14.5 0 Calma 8 Norte 0.2 1004.1 0.7 97
2019-09-22 02:00:00 15.3 4 Sudeste 8 Sur 0 1003.6 0.3 97
2019-09-22 01:00:00 15.9 4 Sudeste 8 Sur 4.6 1003.7 0.7 96
2019-09-22 00:00:00 16.3 4 Este 16 Oeste 1.6 1003.4 2.9 93
2019-09-21 23:00:00 17 9 Oeste 22 Noroeste 0.2 1003.3 4 85
2019-09-21 22:00:00 17.4 12 Oeste 31 Oeste 0 1003 3.9 87
2019-09-21 21:00:00 22.4 13 Oeste 22 Noroeste 0 1000.5 0.3 68
2019-09-21 20:00:00 25.5 3 Sur 13 Sur 0 999.3 -1.2 52
2019-09-21 19:00:00 27.6 3 Sudeste 19 Sur 0 999.1 -1.8 44
2019-09-21 18:00:00 27.1 9 Sur 27 Sur 0 1000.2 -0.8 44
2019-09-21 17:00:00 27.7 7 Sur 23 Sur 0 1000.5 -1 42
2019-09-21 16:00:00 27.9 8 Sudoeste 24 Sudoeste 0 1000.9 -1.6 41
2019-09-21 15:00:00 27.5 7 Norte 19 Este 0 1001 -2.5 49
2019-09-21 14:00:00 25.9 8 Este 17 Este 0 1001.5 -2.1 47
2019-09-21 13:00:00 22.6 4 Nordeste 8 Norte 0 1002.5 -1.5 72
2019-09-21 12:00:00 21.3 4 Norte 7 Norte 0 1003.5 -0.1 76
2019-09-21 11:00:00 20.6 2 Nordeste 6 Norte 0 1003.6 -0.3 76
2019-09-21 10:00:00 17.1 0 Calma 6 Noroeste 0 1004 -0.7 94
2019-09-21 09:00:00 15.6 5 Sudeste 8 Este 0 1003.6 -1.3 97
2019-09-21 08:00:00 15.5 3 Sur 5 Sudeste 0 1003.9 -1.5 96
2019-09-21 07:00:00 16.4 3 Sudeste 9 Este 0 1004.7 -1.2 94
2019-09-21 06:00:00 17.4 3 Este 9 Sudeste 0 1004.9 -1.4 91
2019-09-21 05:00:00 17.5 3 Sudeste 8 Oeste 0 1005.4 -0.7 91
2019-09-21 04:00:00 17.6 3 Noroeste 8 Norte 0 1005.9 -0.4 91
2019-09-21 03:00:00 17.7 2 Este 6 Este 0 1006.3 -0.7 90
2019-09-21 02:00:00 17.7 2 Sudeste 5 Sudeste 0 1006.1 -1.8 90
2019-09-21 01:00:00 17.8 5 Oeste 9 Sur 0 1006.3 -1.4 90
2019-09-21 00:00:00 17.8 6 Sur 12 Sur 0 1007 -0.6 92
2019-09-20 23:00:00 17.8 5 Sudoeste 17 Oeste 0 1007.9 0.8 91
2019-09-20 22:00:00 17.8 6 Sudoeste 13 Sudoeste 0 1007.7 1 90
2019-09-20 21:00:00 17.5 8 Oeste 23 Oeste 0 1007.6 1.5 90
2019-09-20 20:00:00 17.1 11 Oeste 22 Oeste 0 1007.1 0.5 90
2019-09-20 19:00:00 18.7 13 Noroeste 20 Norte 0 1006.7 -0.3 85
2019-09-20 18:00:00 20.9 12 Norte 19 Norte 0 1006.1 -1.4 77
2019-09-20 17:00:00 21.9 15 Norte 21 Norte 0 1006.6 -1.1 74
2019-09-20 16:00:00 23.7 8 Nordeste 17 Norte 0 1007 -- 68
2019-09-20 15:00:00 23.6 9 Norte 17 Noroeste 0 1007.5 -1.5 68
2019-09-20 14:00:00 23.2 9 Noroeste -- -- -- 1007.7 -1.7 67
2019-09-20 13:00:00 -- -- -- -- -- -- -- -- --
2019-09-20 12:00:00 21.9 3 Norte 6 Este 0 1009 -0.5 74
2019-09-20 11:00:00 18.8 4 Oeste 6 Oeste 0 1009.4 -0.3 86
2019-09-20 10:00:00 16.3 0 Calma 4 Sudoeste 0 1009.6 -0.1 96
2019-09-20 09:00:00 13.4 2 Sur 5 Sudeste 0 1009.5 -0.5 99
2019-09-20 08:00:00 12.8 3 Sudeste 4 Sudeste 0 1009.7 -- 98
2019-09-20 07:00:00 13.1 2 Sudeste 4 Sur 0 1009.7 -1.7 98
2019-09-20 06:00:00 13.5 3 Este -- -- -- 1010 -2 97
2019-09-20 05:00:00 -- -- -- -- -- -- -- -- --
2019-09-20 04:00:00 14.6 3 Sudeste 5 Sudeste 0 1011.4 -1.4 96
2019-09-20 03:00:00 15.5 3 Este 5 Sur 0 1012 -1.6 94
2019-09-20 02:00:00 16.9 0 Calma 12 Este 0 1012.2 -1.6 88
2019-09-20 01:00:00 17.7 8 Este 12 Este 0 1012.8 -1 85
2019-09-20 00:00:00 18 6 Este 14 Este 0 1013.6 0 86
2019-09-19 23:00:00 18.1 8 Este 13 Este 0 1013.8 0.4 85
2019-09-19 22:00:00 18.2 5 Este 19 Este 0 1013.8 0.5 83
2019-09-19 21:00:00 18.8 8 Este 23 Nordeste 0 1013.6 0 81
2019-09-19 20:00:00 19.8 10 Este 26 Este 0 1013.4 -0.4 76
2019-09-19 19:00:00 21.3 11 Este 28 Este 0 1013.3 -0.8 70
2019-09-19 18:00:00 22 11 Nordeste 29 Nordeste 0 1013.6 -0.9 68
2019-09-19 17:00:00 22.7 12 Nordeste 32 Nordeste 0 1013.8 -1.3 65
2019-09-19 16:00:00 23.3 13 Nordeste 34 Nordeste 0 1014.1 -1.3 64
2019-09-19 15:00:00 24 15 Nordeste 32 Norte 0 1014.5 -1.3 63
2019-09-19 14:00:00 23 13 Nordeste 26 Este 0 1015.1 -0.9 67
2019-09-19 13:00:00 23.2 10 Nordeste 23 Nordeste 0 1015.4 -0.5 69
2019-09-19 12:00:00 23.1 7 Nordeste -- -- -- 1015.8 0.2 71
2019-09-19 11:00:00 21.3 7 Este 16 Este 0 1016 0.8 73
2019-09-19 10:00:00 17.3 2 Noroeste 5 Este 0 1015.9 0.9 94
2019-09-19 09:00:00 14.2 4 Sudeste 5 Sudeste 0 1015.6 0.5 100
2019-09-19 08:00:00 13.9 2 Sur 5 Sudoeste 0 1015.2 -0.2 98
2019-09-19 07:00:00 14.3 3 Sudeste 6 Este 0 1015 -0.5 97
2019-09-19 06:00:00 15 4 Sudeste 6 Sudeste 0 1015.1 -0.8 96
2019-09-19 05:00:00 16.3 3 Sudeste 5 Este 0 1015.4 -0.9 95
2019-09-19 04:00:00 17.4 3 Este 7 Sudeste 0 1015.5 -1 92
2019-09-19 03:00:00 18.2 4 Este 13 Este 0 1015.9 -0.5 91
2019-09-19 02:00:00 18.2 7 Este 17 Este 0 1016.3 0.1 91
2019-09-19 01:00:00 18.4 8 Este 17 Este 0 1016.5 0.5 90
2019-09-19 00:00:00 19 6 Este 17 Este 0 1016.4 0.8 86
2019-09-18 23:00:00 19.2 6 Este 17 Este 0 1016.2 0.9 86
2019-09-18 22:00:00 19.4 9 Este 18 Este 0 1016 1 85
2019-09-18 21:00:00 19.6 8 Este 21 Este 0 1015.6 0.8 85
2019-09-18 20:00:00 20 9 Este 20 Este 0 1015.3 0.7 84
2019-09-18 19:00:00 20.5 8 Nordeste 21 Nordeste 0 1015 0.3 82
2019-09-18 18:00:00 21.2 10 Nordeste 23 Este 0 1014.8 -0.1 81
2019-09-18 17:00:00 22.3 12 Nordeste 27 Nordeste 0 1014.6 -0.3 78
2019-09-18 16:00:00 22.8 12 Nordeste -- -- -- 1014.7 -0.4 78
2019-09-18 15:00:00 22.9 8 Nordeste 19 Nordeste 0 1014.9 -0.1 82
2019-09-18 14:00:00 21.8 10 Norte 17 Norte 0 1014.9 0 85
2019-09-18 13:00:00 22.1 11 Norte 16 Noroeste 0 1015.1 0.6 81
2019-09-18 12:00:00 22.2 5 Noroeste 9 Noroeste 0 1015 1.1 81
2019-09-18 11:00:00 20.6 3 Oeste 7 Oeste 0 1014.9 1.6 89
2019-09-18 10:00:00 18.1 0 Calma 3 Sudeste 0.2 1014.5 1.7 98
2019-09-18 09:00:00 17.6 2 Sur 5 Nordeste 0 1013.9 1.2 98
2019-09-18 08:00:00 17.3 2 Norte 4 Noroeste 0 1013.3 0.5 99
2019-09-18 07:00:00 16.7 3 Sudoeste 6 Este 0 1012.8 -0.2 99
2019-09-18 06:00:00 16.3 4 Sudeste 5 Sur 0 1012.7 -1.1 98
2019-09-18 05:00:00 16.9 2 Nordeste 8 Sur 0 1012.8 -1.2 98
2019-09-18 04:00:00 17.4 2 Sudeste 5 Sur 0 1013 -1 97
2019-09-18 03:00:00 18.2 3 Sudeste -- -- -- 1013.8 -0.5 97
2019-09-18 02:00:00 18.6 2 Sudeste 5 Sudeste 0 1014 -0.3 97
2019-09-18 01:00:00 19.1 3 Norte 5 Norte 0 1014 -0.5 96
2019-09-18 00:00:00 19.2 2 Sudeste -- -- -- 1014.3 0.5 95
2019-09-17 23:00:00 19.8 2 Sur 5 Norte 0 1014.3 0.6 94
2019-09-17 22:00:00 20.3 2 Este 14 Norte 0 1014.5 0.8 93
2019-09-17 21:00:00 20.5 8 Norte 10 Norte 0 1013.8 0.5 92